Time;durP1;ratioP1;P1;durP2;ratioP2;P2;SDS_P1;SDS_P2;PMS_P1;PMS_P2;Temp;Humidity;BMP_temperature;BMP_pressure;BME280_temperature;BME280_humidity;BME280_pressure;Samples;Min_cycle;Max_cycle;Signal;HPM_P1;HPM_P2
2023/09/10 00:02:43;;;;;;;19.30;14.90;;;;;;;18.43;73.99;99411.55;233004;217;137430;-61
2023/09/10 00:07:48;;;;;;;18.90;15.80;;;;;;;18.43;73.97;99408.42;232959;216;143959;-62
2023/09/10 00:12:54;;;;;;;21.50;15.30;;;;;;;18.39;74.09;99404.65;232748;217;138938;-61
2023/09/10 00:17:59;;;;;;;;;;;;;;;18.35;74.02;99403.74;232838;217;137461;-61
2023/09/10 00:23:03;;;;;;;21.50;16.30;;;;;;;18.28;73.98;99397.42;232958;216;143570;-60
2023/09/10 00:28:07;;;;;;;18.50;14.40;;;;;;;18.17;73.90;99399.73;232766;216;139038;-59
2023/09/10 00:33:12;;;;;;;19.90;15.20;;;;;;;18.12;73.99;99393.79;232953;216;138140;-60
2023/09/10 00:38:17;;;;;;;17.70;14.50;;;;;;;18.09;74.05;99385.80;232748;216;146178;-63
2023/09/10 00:43:21;;;;;;;20.50;15.10;;;;;;;18.06;73.94;99389.66;232791;216;139395;-59
2023/09/10 00:48:26;;;;;;;21.40;15.20;;;;;;;18.02;73.98;99389.30;232845;216;137069;-60
2023/09/10 00:53:31;;;;;;;19.60;15.70;;;;;;;17.96;74.02;99391.73;232649;217;145616;-61
2023/09/10 00:58:37;;;;;;;23.60;14.80;;;;;;;17.89;74.20;99384.84;232762;217;139028;-60
2023/09/10 01:03:42;;;;;;;19.80;14.80;;;;;;;17.82;74.04;99380.95;232879;217;136884;-60
2023/09/10 01:08:48;;;;;;;20.80;14.20;;;;;;;17.79;74.11;99384.48;232846;216;146903;-58
2023/09/10 01:14:04;;;;;;;18.70;14.80;;;;;;;17.76;73.97;99384.16;232935;216;138909;-60
2023/09/10 01:19:20;;;;;;;21.80;15.20;;;;;;;17.73;73.90;99381.66;232873;215;137931;-61
2023/09/10 01:24:50;;;;;;;19.40;14.70;;;;;;;17.69;73.99;99386.48;232846;215;145598;-60
2023/09/10 01:29:55;;;;;;;20.80;15.60;;;;;;;17.63;74.21;99386.32;232800;216;138812;-59
2023/09/10 01:35:10;;;;;;;19.60;15.10;;;;;;;17.57;74.21;99384.52;232842;215;137996;-57
2023/09/10 01:40:20;;;;;;;17.50;13.80;;;;;;;17.49;74.55;99383.90;234484;215;145815;-59
2023/09/10 01:45:26;;;;;;;16.40;13.10;;;;;;;17.47;74.53;99385.55;234492;216;139031;-60
2023/09/10 01:50:30;;;;;;;19.80;14.60;;;;;;;17.47;74.64;99384.83;234337;216;137132;-62
2023/09/10 01:55:33;;;;;;;19.30;14.30;;;;;;;17.47;74.61;99382.64;234327;216;147071;-61
2023/09/10 02:00:37;;;;;;;19.50;14.90;;;;;;;17.46;74.68;99381.16;234352;216;139519;-60
2023/09/10 02:05:43;;;;;;;20.60;14.90;;;;;;;17.41;74.59;99384.20;234474;215;136774;-59
2023/09/10 02:10:48;;;;;;;20.70;15.10;;;;;;;17.40;74.44;99383.30;234494;215;145850;-58
2023/09/10 02:17:53;;;;;;;21.10;14.30;;;;;;;17.37;74.53;99380.48;231452;224;723118;-59
2023/09/10 02:22:58;;;;;;;23.90;14.90;;;;;;;17.34;74.60;99381.10;232282;219;136882;-57
2023/09/10 02:28:08;;;;;;;18.80;14.40;;;;;;;17.36;74.41;99378.28;232187;219;144664;-58
2023/09/10 02:33:14;;;;;;;22.60;15.20;;;;;;;17.34;74.26;99382.34;232947;216;138948;-61
2023/09/10 02:38:24;;;;;;;19.10;14.90;;;;;;;17.28;74.16;99389.10;232839;216;137884;-59
2023/09/10 02:43:30;;;;;;;20.70;15.10;;;;;;;17.19;74.32;99386.66;232767;215;143644;-55
2023/09/10 02:48:35;;;;;;;17.40;13.30;;;;;;;17.13;74.55;99391.09;232843;216;139505;-60
2023/09/10 02:53:40;;;;;;;19.50;12.90;;;;;;;17.08;74.63;99389.55;232897;216;138409;-61
2023/09/10 02:58:46;;;;;;;18.90;14.20;;;;;;;17.05;74.62;99388.70;232786;215;144231;-60
2023/09/10 03:03:50;;;;;;;22.00;15.40;;;;;;;17.03;74.80;99391.53;232923;215;138918;-63
2023/09/10 03:08:55;;;;;;;20.20;14.60;;;;;;;17.04;74.75;99390.07;232843;215;137149;-61
2023/09/10 03:14:00;;;;;;;19.20;14.60;;;;;;;16.99;74.94;99389.74;232991;215;145758;-62
2023/09/10 03:19:06;;;;;;;19.90;14.40;;;;;;;16.92;75.19;99392.11;232814;216;138679;-59
2023/09/10 03:24:12;;;;;;;19.40;14.20;;;;;;;16.87;75.31;99390.37;232811;216;139254;-60
2023/09/10 03:29:18;;;;;;;20.90;13.70;;;;;;;16.85;75.57;99380.15;232832;215;147629;-61
2023/09/10 03:34:24;;;;;;;18.80;14.60;;;;;;;16.88;75.76;99379.88;232856;216;138633;-61
2023/09/10 03:39:28;;;;;;;22.10;15.30;;;;;;;16.92;75.72;99379.40;233004;216;137864;-62
2023/09/10 03:44:32;;;;;;;22.10;15.40;;;;;;;16.91;75.74;99377.89;232916;216;145911;-60
2023/09/10 03:49:36;;;;;;;20.50;14.00;;;;;;;16.87;75.63;99383.20;232770;216;140634;-62
2023/09/10 03:54:43;;;;;;;21.60;14.30;;;;;;;16.82;75.31;99381.88;232892;216;138253;-60
2023/09/10 03:59:47;;;;;;;17.90;13.20;;;;;;;16.70;75.01;99377.98;232829;216;145921;-60
2023/09/10 04:04:52;;;;;;;16.80;13.10;;;;;;;16.63;75.12;99376.55;232765;215;138821;-59
2023/09/10 04:09:57;;;;;;;17.30;13.80;;;;;;;16.61;75.13;99376.20;232972;216;137842;-58
2023/09/10 04:15:01;;;;;;;19.70;14.10;;;;;;;16.61;75.07;99377.06;232806;215;284396;-59
2023/09/10 04:20:07;;;;;;;19.90;14.10;;;;;;;16.58;75.07;99376.98;232947;215;139408;-59
2023/09/10 04:25:10;;;;;;;21.80;15.50;;;;;;;16.56;75.04;99378.35;232850;216;137192;-61
2023/09/10 04:30:15;;;;;;;19.20;13.90;;;;;;;16.54;74.98;99381.90;232799;215;145783;-61
2023/09/10 04:35:20;;;;;;;22.90;13.60;;;;;;;16.48;75.08;99386.33;232912;215;140444;-61
2023/09/10 04:40:25;;;;;;;19.90;13.20;;;;;;;16.46;75.43;99390.11;232807;215;137773;-60
2023/09/10 04:45:30;;;;;;;19.90;13.40;;;;;;;16.49;75.62;99393.83;233012;215;145670;-59
2023/09/10 04:50:35;;;;;;;18.00;14.30;;;;;;;16.56;75.82;99397.58;232772;215;140781;-60
2023/09/10 04:55:39;;;;;;;17.60;14.20;;;;;;;16.60;75.75;99394.72;232799;215;137012;-60
2023/09/10 05:00:43;;;;;;;20.30;14.40;;;;;;;16.63;75.87;99392.83;232838;215;145815;-60
2023/09/10 05:05:59;;;;;;;20.10;13.60;;;;;;;16.66;76.10;99395.46;232788;215;138722;-60
2023/09/10 05:11:03;;;;;;;17.20;13.40;;;;;;;16.70;76.38;99395.48;232876;216;141992;-59
2023/09/10 05:16:09;;;;;;;17.90;13.20;;;;;;;16.80;76.51;99398.47;232941;215;145808;-60
2023/09/10 05:21:13;;;;;;;18.10;14.70;;;;;;;16.88;76.31;99403.05;232941;216;138741;-60
2023/09/10 05:26:18;;;;;;;22.00;15.30;;;;;;;16.93;76.33;99404.06;232861;215;138204;-60
2023/09/10 05:31:25;;;;;;;19.00;14.20;;;;;;;16.98;76.25;99400.77;232808;215;145441;-61
2023/09/10 05:36:29;;;;;;;17.60;13.20;;;;;;;17.01;76.60;99403.35;232788;216;139458;-61
2023/09/10 05:41:34;;;;;;;18.20;13.30;;;;;;;17.10;76.93;99403.71;232902;215;138735;-60
2023/09/10 05:46:39;;;;;;;20.60;14.40;;;;;;;17.24;77.05;99403.63;232790;215;145569;-59
2023/09/10 05:51:43;;;;;;;22.20;16.10;;;;;;;17.37;77.28;99403.77;232974;215;139530;-59
2023/09/10 05:56:49;;;;;;;20.80;16.40;;;;;;;17.52;77.71;99401.62;232831;215;138187;-59
2023/09/10 06:01:54;;;;;;;51.70;39.70;;;;;;;17.72;78.30;99399.00;232850;215;146060;-58
2023/09/10 06:08:20;;;;;;;22.20;16.90;;;;;;;18.21;77.80;99398.51;231229;225;722776;-59
2023/09/10 06:13:28;;;;;;;23.60;17.00;;;;;;;18.48;76.87;99403.73;232105;219;137688;-58
2023/09/10 06:18:35;;;;;;;38.40;30.90;;;;;;;18.74;76.47;99399.17;232216;218;145047;-58
2023/09/10 06:23:40;;;;;;;40.00;33.10;;;;;;;18.96;75.93;99398.13;232153;219;139133;-59
2023/09/10 06:28:48;;;;;;;27.30;21.30;;;;;;;19.15;75.37;99396.02;232253;219;138627;-58
2023/09/10 06:34:06;;;;;;;26.10;20.10;;;;;;;19.31;75.07;99393.66;232936;217;145728;-60
2023/09/10 06:39:11;;;;;;;25.00;18.90;;;;;;;19.40;74.80;99389.61;232794;217;139972;-60
2023/09/10 06:44:17;;;;;;;22.60;18.20;;;;;;;19.46;74.70;99392.98;232759;217;141758;-59
2023/09/10 06:49:26;;;;;;;22.80;16.90;;;;;;;19.59;74.58;99399.71;232765;217;144753;-58
2023/09/10 06:54:33;;;;;;;58.60;47.80;;;;;;;19.74;74.51;99401.53;232716;217;140783;-58
2023/09/10 06:59:39;;;;;;;45.10;33.20;;;;;;;19.93;74.10;99407.02;232713;217;137766;-60
2023/09/10 07:04:47;;;;;;;54.80;45.80;;;;;;;20.06;73.96;99413.62;232798;217;146252;-58
2023/09/10 07:09:51;;;;;;;44.40;34.50;;;;;;;20.18;73.62;99413.77;232857;216;140699;-59
2023/09/10 07:14:58;;;;;;;51.80;40.80;;;;;;;20.22;73.46;99408.86;232803;216;137688;-59
2023/09/10 07:20:07;;;;;;;60.60;49.40;;;;;;;20.31;73.26;99411.55;232687;216;145732;-58
2023/09/10 07:25:13;;;;;;;149.60;115.50;;;;;;;20.48;72.83;99413.02;232718;216;139804;-59
2023/09/10 07:30:20;;;;;;;34.40;27.20;;;;;;;20.64;72.75;99410.39;232856;216;138440;-58
2023/09/10 07:35:24;;;;;;;24.60;19.00;;;;;;;20.81;72.41;99406.23;232807;216;145805;-60
2023/09/10 07:40:29;;;;;;;26.20;19.90;;;;;;;20.95;72.10;99403.21;232962;216;139536;-58
2023/09/10 07:45:33;;;;;;;30.00;24.70;;;;;;;21.06;71.81;99407.68;233013;216;137181;-59
2023/09/10 07:50:39;;;;;;;25.10;18.70;;;;;;;21.16;70.87;99407.98;232786;216;146270;-58
2023/09/10 07:55:44;;;;;;;25.40;18.70;;;;;;;21.26;70.80;99411.88;232851;215;140904;-59
2023/09/10 08:00:56;;;;;;;25.70;20.70;;;;;;;21.35;70.51;99408.40;232828;216;138567;-59
2023/09/10 08:06:04;;;;;;;22.40;16.10;;;;;;;21.49;70.44;99405.52;232834;216;145550;-59
2023/09/10 08:11:08;;;;;;;21.40;16.60;;;;;;;21.67;70.34;99404.50;232772;216;139238;-59
2023/09/10 08:16:15;;;;;;;21.20;17.60;;;;;;;21.80;69.84;99402.54;232821;216;137865;-60
2023/09/10 08:21:21;;;;;;;22.70;16.90;;;;;;;21.93;69.09;99400.66;232742;216;147635;-58
2023/09/10 08:26:26;;;;;;;82.00;67.70;;;;;;;22.02;69.10;99400.10;232727;216;139248;-57
2023/09/10 08:31:33;;;;;;;53.80;46.50;;;;;;;22.13;68.71;99401.10;232845;216;138020;-58
2023/09/10 08:36:40;;;;;;;20.40;14.50;;;;;;;22.23;68.88;99399.20;232887;216;147374;-59
2023/09/10 08:42:06;;;;;;;17.30;12.80;;;;;;;22.39;68.92;99399.56;232910;216;140198;-59
2023/09/10 08:47:19;;;;;;;20.00;14.00;;;;;;;22.63;68.83;99402.93;232736;216;137152;-58
2023/09/10 08:52:35;;;;;;;20.20;15.70;;;;;;;22.82;67.86;99403.58;232677;216;145451;-60
2023/09/10 08:57:42;;;;;;;18.30;14.20;;;;;;;22.93;67.59;99402.95;232872;216;141229;-60
2023/09/10 09:02:49;;;;;;;138.90;112.90;;;;;;;23.05;67.03;99401.58;232774;216;138128;-58
2023/09/10 09:07:58;;;;;;;22.70;18.60;;;;;;;23.15;67.07;99397.51;232772;216;147397;-63
2023/09/10 09:13:09;;;;;;;18.40;14.30;;;;;;;23.29;66.48;99394.41;232820;216;141009;-57
2023/09/10 09:18:18;;;;;;;16.80;13.50;;;;;;;23.39;65.99;99389.67;232881;216;137242;-60
2023/09/10 09:23:43;;;;;;;38.00;31.80;;;;;;;23.52;65.92;99380.23;232781;216;146481;-58
2023/09/10 09:28:55;;;;;;;15.80;12.30;;;;;;;23.70;65.30;99384.97;232732;217;140673;-58
2023/09/10 09:34:03;;;;;;;13.30;10.80;;;;;;;23.92;65.01;99383.42;232731;216;137493;-59
2023/09/10 09:39:11;;;;;;;15.60;10.30;;;;;;;24.13;64.04;99377.94;232625;216;146648;-57
2023/09/10 09:44:16;;;;;;;18.50;14.20;;;;;;;24.35;63.70;99373.48;232680;216;139387;-62
2023/09/10 09:49:46;;;;;;;18.80;14.20;;;;;;;24.52;63.85;99373.36;232776;217;137409;-59
2023/09/10 09:54:52;;;;;;;15.70;10.70;;;;;;;24.71;63.85;99365.23;232559;217;148634;-58
2023/09/10 09:59:58;;;;;;;;;;;;;;;24.90;62.68;99362.59;232710;217;140108;-59
2023/09/10 10:05:07;;;;;;;14.50;10.00;;;;;;;25.16;62.42;99360.20;232751;217;131317;-58
2023/09/10 10:10:15;;;;;;;11.60;9.50;;;;;;;25.41;61.82;99355.05;232845;217;146025;-56
2023/09/10 10:15:25;;;;;;;10.80;9.30;;;;;;;25.64;61.25;99347.89;232601;217;140640;-59
2023/09/10 10:20:32;;;;;;;13.80;10.70;;;;;;;25.90;61.07;99345.52;232850;217;137347;-60
2023/09/10 10:25:43;;;;;;;135.00;110.20;;;;;;;26.10;60.32;99341.92;232708;217;146276;-59
2023/09/10 10:30:52;;;;;;;32.10;26.80;;;;;;;26.31;59.70;99336.89;234421;217;138866;-59
2023/09/10 10:36:23;;;;;;;17.60;13.20;;;;;;;26.50;58.77;99331.61;234418;217;136904;-59
2023/09/10 10:41:29;;;;;;;15.40;10.90;;;;;;;26.71;58.61;99328.06;234561;216;145867;-61
2023/09/10 10:46:35;;;;;;;13.20;8.80;;;;;;;26.89;57.14;99323.77;234493;216;139193;-60
2023/09/10 10:51:45;;;;;;;11.30;8.50;;;;;;;27.03;55.77;99322.35;234419;217;137536;-60
2023/09/10 10:56:59;;;;;;;10.90;9.10;;;;;;;27.20;54.72;99313.94;234445;216;145678;-60
2023/09/10 11:02:10;;;;;;;11.90;9.40;;;;;;;27.35;54.56;99306.27;234335;217;138076;-61
2023/09/10 11:07:22;;;;;;;15.10;12.60;;;;;;;27.46;54.53;99301.66;234396;216;137413;-59
2023/09/10 11:17:51;;;;;;;43.70;36.90;;;;;;;27.85;54.57;99291.02;231377;226;722956;-60
2023/09/10 11:23:09;;;;;;;11.20;9.80;;;;;;;27.99;52.99;99291.96;232796;216;137140;-60
2023/09/10 11:28:44;;;;;;;10.40;8.80;;;;;;;28.11;50.88;99288.07;232954;216;144531;-61
2023/09/10 11:33:56;;;;;;;11.90;9.60;;;;;;;28.28;50.64;99286.20;232753;216;139632;-57
2023/09/10 11:39:02;;;;;;;9.90;8.10;;;;;;;28.48;51.72;99276.38;232931;216;137095;-59
2023/09/10 11:44:07;;;;;;;10.20;8.40;;;;;;;28.66;49.62;99277.54;232788;216;144843;-60
2023/09/10 11:49:16;;;;;;;12.30;8.70;;;;;;;28.79;49.04;99268.97;232774;216;140441;-60
2023/09/10 11:54:23;;;;;;;13.70;10.20;;;;;;;28.95;48.41;99265.86;232655;216;137348;-57
2023/09/10 11:59:31;;;;;;;11.40;8.70;;;;;;;29.14;49.33;99259.70;232747;216;143951;-59
2023/09/10 12:04:37;;;;;;;14.20;8.40;;;;;;;29.31;47.51;99250.80;232829;216;138953;-59
2023/09/10 12:09:42;;;;;;;137.90;122.10;;;;;;;29.48;47.26;99247.16;232774;216;137585;-60
2023/09/10 12:14:51;;;;;;;52.40;46.80;;;;;;;29.71;47.00;99248.17;232764;215;146554;-59
2023/09/10 12:19:59;;;;;;;17.80;15.10;;;;;;;29.79;47.20;99242.00;232764;216;139037;-59
2023/09/10 12:25:07;;;;;;;9.90;8.40;;;;;;;29.74;46.83;99236.64;232766;216;138668;-59
2023/09/10 12:30:14;;;;;;;9.30;7.20;;;;;;;29.73;46.70;99237.66;232792;216;147938;-60
2023/09/10 12:35:21;;;;;;;11.30;8.20;;;;;;;29.72;44.80;99233.36;232745;217;139391;-60
2023/09/10 12:40:30;;;;;;;17.30;9.30;;;;;;;29.77;45.49;99227.23;232744;215;137091;-60
2023/09/10 12:45:36;;;;;;;55.50;47.30;;;;;;;29.85;44.90;99225.48;232667;215;148284;-59
2023/09/10 12:50:44;;;;;;;12.00;8.30;;;;;;;30.07;44.10;99226.89;232624;215;139327;-61
2023/09/10 12:55:48;;;;;;;8.30;5.40;;;;;;;30.30;41.93;99223.91;232645;215;138278;-58
2023/09/10 13:00:57;;;;;;;9.50;6.40;;;;;;;30.44;40.81;99220.29;232594;215;146593;-59
2023/09/10 13:06:03;;;;;;;47.70;40.40;;;;;;;30.60;39.64;99210.89;232586;215;139352;-60
2023/09/10 13:11:08;;;;;;;39.10;35.00;;;;;;;30.72;38.98;99206.39;232707;215;137353;-59
2023/09/10 13:16:15;;;;;;;17.40;13.90;;;;;;;30.91;39.00;99196.77;232773;215;147969;-57
2023/09/10 13:21:21;;;;;;;6.70;6.10;;;;;;;30.99;38.50;99195.38;232702;215;140309;-59
2023/09/10 13:26:27;;;;;;;9.70;5.80;;;;;;;31.02;37.85;99189.33;232665;215;137965;-59
2023/09/10 13:31:32;;;;;;;7.80;5.50;;;;;;;31.05;37.87;99186.38;232636;215;147681;-58
2023/09/10 13:36:39;;;;;;;7.90;5.20;;;;;;;31.11;36.93;99188.14;232625;215;139568;-58
2023/09/10 13:41:45;;;;;;;6.40;4.70;;;;;;;31.15;37.12;99182.35;232666;215;136599;-61
2023/09/10 13:46:53;;;;;;;6.70;5.20;;;;;;;31.11;36.88;99179.46;232758;214;146449;-57
2023/09/10 13:51:58;;;;;;;363.60;323.80;;;;;;;31.11;36.60;99177.42;232623;215;140010;-59
2023/09/10 13:57:06;;;;;;;27.10;13.90;;;;;;;31.15;36.52;99175.30;232669;214;138731;-58
2023/09/10 14:02:23;;;;;;;8.50;6.40;;;;;;;30.95;36.21;99175.02;232694;215;145660;-56
2023/09/10 14:07:31;;;;;;;8.00;5.60;;;;;;;30.57;36.76;99176.21;232624;215;140320;-58
2023/09/10 14:12:41;;;;;;;7.80;4.90;;;;;;;30.19;37.71;99176.08;232665;215;137282;-56
2023/09/10 14:17:52;;;;;;;6.10;5.40;;;;;;;29.86;37.62;99173.42;232653;215;146701;-57
2023/09/10 14:22:57;;;;;;;7.20;5.60;;;;;;;29.56;38.57;99172.77;232828;215;139973;-57
2023/09/10 14:28:04;;;;;;;7.60;6.80;;;;;;;29.20;40.27;99175.30;232818;215;137085;-57
2023/09/10 14:33:09;;;;;;;49.10;44.50;;;;;;;28.83;41.91;99172.16;232679;215;147123;-59
2023/09/10 14:38:14;;;;;;;10.60;9.40;;;;;;;28.63;43.35;99171.48;232646;215;139708;-58
2023/09/10 14:43:21;;;;;;;11.80;9.10;;;;;;;28.48;43.90;99171.95;232685;215;137786;-59
2023/09/10 14:48:28;;;;;;;11.40;9.50;;;;;;;28.34;44.77;99174.21;232672;215;146337;-58
2023/09/10 14:53:33;;;;;;;10.30;7.50;;;;;;;28.15;45.61;99176.80;232669;215;139024;-56
2023/09/10 14:58:38;;;;;;;8.60;6.70;;;;;;;27.98;46.07;99173.54;232808;215;137562;-58
2023/09/10 15:03:44;;;;;;;9.70;8.30;;;;;;;27.83;46.42;99171.70;232683;215;147028;-59
2023/09/10 15:08:51;;;;;;;12.20;9.50;;;;;;;27.70;47.33;99167.56;232610;215;138971;-58
2023/09/10 15:13:58;;;;;;;9.70;8.20;;;;;;;27.55;47.85;99160.27;232624;215;137787;-59
2023/09/10 15:19:03;;;;;;;9.90;8.00;;;;;;;27.44;48.50;99158.12;232676;215;145469;-59
2023/09/10 15:24:10;;;;;;;8.90;7.10;;;;;;;27.35;48.80;99154.87;232585;215;139550;-58
2023/09/10 15:29:16;;;;;;;10.00;7.20;;;;;;;27.27;48.69;99148.52;232726;215;138600;-57
2023/09/10 15:34:21;;;;;;;10.30;6.90;;;;;;;27.20;48.84;99142.08;232842;215;146548;-59
2023/09/10 15:39:26;;;;;;;69.20;60.30;;;;;;;27.11;49.17;99142.70;232644;213;258561;-60
2023/09/10 15:44:32;;;;;;;13.30;10.70;;;;;;;27.09;49.51;99143.94;232568;215;138049;-60
2023/09/10 15:49:38;;;;;;;11.20;8.10;;;;;;;27.07;49.55;99141.33;232616;215;147400;-60
2023/09/10 15:54:45;;;;;;;24.50;21.50;;;;;;;27.00;50.05;99141.35;232570;215;140947;-60
2023/09/10 15:59:53;;;;;;;10.50;7.90;;;;;;;26.89;49.85;99141.18;232589;215;137794;-59
2023/09/10 16:04:58;;;;;;;8.80;7.20;;;;;;;26.74;50.18;99144.95;232795;215;149311;-58
2023/09/10 19:45:32;;;;;;;15.10;8.90;;;;;;;21.18;72.24;99185.58;231391;224;699271;-63
2023/09/10 19:50:37;;;;;;;13.60;8.10;;;;;;;21.09;72.43;99184.81;232289;220;138401;-62
2023/09/10 19:55:41;;;;;;;16.50;8.60;;;;;;;21.12;72.57;99180.50;232213;220;143978;-61
2023/09/10 20:00:46;;;;;;;17.20;8.90;;;;;;;21.20;72.43;99175.30;232240;219;151428;-60
2023/09/10 20:05:57;;;;;;;13.70;8.50;;;;;;;21.27;72.36;99181.07;232884;216;137208;-61
2023/09/10 20:11:06;;;;;;;14.00;8.60;;;;;;;21.31;72.01;99181.94;232772;216;145633;-57
2023/09/10 20:16:11;;;;;;;;;;;;;;;21.32;71.82;99180.38;232870;217;139273;-63
2023/09/10 20:21:15;;;;;;;15.60;9.30;;;;;;;21.30;71.94;99183.99;232838;216;129303;-61
2023/09/10 20:26:20;;;;;;;12.10;8.70;;;;;;;21.27;72.07;99181.41;232820;216;144546;-58
2023/09/10 20:31:42;;;;;;;17.40;8.10;;;;;;;21.24;72.16;99180.11;232789;216;140019;-60
2023/09/10 20:36:49;;;;;;;13.00;8.00;;;;;;;21.27;71.97;99179.68;232802;216;138259;-62
2023/09/10 20:41:55;;;;;;;13.90;8.40;;;;;;;21.28;71.77;99176.54;232929;216;145766;-60
2023/09/10 20:47:01;;;;;;;13.40;8.50;;;;;;;21.25;71.55;99174.77;232838;217;139097;-61
2023/09/10 20:52:05;;;;;;;13.30;9.10;;;;;;;21.20;71.48;99172.04;232796;216;136778;-61
2023/09/10 20:57:11;;;;;;;16.50;8.60;;;;;;;21.13;71.52;99168.48;232703;217;147203;-68
2023/09/10 21:02:17;;;;;;;14.70;8.30;;;;;;;21.06;71.41;99170.42;232774;216;138818;-58
2023/09/10 21:07:20;;;;;;;10.30;7.60;;;;;;;20.99;71.41;99169.05;232861;216;138241;-66
2023/09/10 21:12:26;;;;;;;18.10;8.80;;;;;;;20.94;71.37;99171.86;232883;217;145432;-63
2023/09/10 21:17:32;;;;;;;14.50;9.10;;;;;;;20.91;71.36;99172.95;232837;217;139886;-63
2023/09/10 21:22:36;;;;;;;15.50;8.90;;;;;;;20.86;71.35;99172.38;232570;217;137941;-65
2023/09/10 21:27:41;;;;;;;16.30;8.30;;;;;;;20.79;71.55;99171.47;232564;218;145854;-64
2023/09/10 21:32:53;;;;;;;12.10;9.40;;;;;;;20.69;71.57;99169.94;232633;217;139426;-63
2023/09/10 21:37:58;;;;;;;14.10;8.60;;;;;;;20.62;71.89;99172.48;232744;217;138006;-63
2023/09/10 21:43:04;;;;;;;13.40;8.70;;;;;;;20.57;71.94;99167.73;232833;216;145983;-62
2023/09/10 21:48:09;;;;;;;12.90;9.00;;;;;;;20.53;72.11;99170.47;232888;217;138971;-63
2023/09/10 21:53:13;;;;;;;13.10;8.80;;;;;;;20.52;72.15;99168.21;232753;217;136941;-63
2023/09/10 21:58:17;;;;;;;12.20;8.90;;;;;;;20.49;72.13;99169.80;232772;217;146616;-62
2023/09/10 22:03:24;;;;;;;19.20;8.90;;;;;;;20.42;72.01;99174.66;232750;217;139518;-66
